createdAt,value
2018-09-11T00:00:01.751Z,19.70
2018-09-11T00:05:04.804Z,19.60
2018-09-11T00:10:07.840Z,19.60
2018-09-11T00:15:10.868Z,19.50
2018-09-11T00:20:13.888Z,19.50
2018-09-11T00:25:16.932Z,19.40
2018-09-11T00:30:19.951Z,19.40
2018-09-11T00:35:24.032Z,19.40
2018-09-11T00:40:27.040Z,19.30
2018-09-11T00:45:30.167Z,19.30
2018-09-11T00:50:33.171Z,19.40
2018-09-11T00:55:36.153Z,19.30
2018-09-11T01:00:39.179Z,19.30
2018-09-11T01:05:42.281Z,19.40
2018-09-11T01:10:45.568Z,19.30
2018-09-11T01:15:48.599Z,19.30
2018-09-11T01:20:51.923Z,19.30
2018-09-11T01:25:55.015Z,19.30
2018-09-11T01:30:58.151Z,19.30
2018-09-11T01:36:01.319Z,19.30
2018-09-11T01:41:04.496Z,19.10
2018-09-11T01:46:07.711Z,19.00
2018-09-11T01:51:10.735Z,19.10
2018-09-11T01:56:13.786Z,19.20
2018-09-11T02:01:16.957Z,19.20
2018-09-11T02:06:20.055Z,19.20
2018-09-11T02:11:23.064Z,19.20
2018-09-11T02:16:26.063Z,19.20
2018-09-11T02:21:29.079Z,19.20
2018-09-11T02:26:32.082Z,19.20
2018-09-11T02:31:35.120Z,19.20
2018-09-11T02:36:39.216Z,19.20
2018-09-11T02:41:42.250Z,19.30
2018-09-11T02:46:45.295Z,19.30
2018-09-11T02:51:48.311Z,19.30
2018-09-11T02:56:51.314Z,19.30
2018-09-11T03:01:54.345Z,19.30
2018-09-11T03:06:57.385Z,19.30
2018-09-11T03:12:00.420Z,19.30
2018-09-11T03:17:03.403Z,19.30
2018-09-11T03:22:06.415Z,19.30
2018-09-11T03:27:09.413Z,19.30
2018-09-11T03:32:12.431Z,19.30
2018-09-11T03:37:15.437Z,19.30
2018-09-11T03:42:18.456Z,19.20
2018-09-11T03:47:21.473Z,19.20
2018-09-11T03:52:24.532Z,19.20
2018-09-11T03:57:27.552Z,19.20
2018-09-11T04:02:30.548Z,19.20
2018-09-11T04:07:33.553Z,19.10
2018-09-11T04:12:36.587Z,19.20
2018-09-11T04:17:41.132Z,19.20
2018-09-11T04:22:44.168Z,19.10
2018-09-11T04:27:47.202Z,19.00
2018-09-11T04:32:50.217Z,19.00
2018-09-11T04:37:53.230Z,19.00
2018-09-11T04:42:56.288Z,18.90
2018-09-11T04:47:59.395Z,18.80
2018-09-11T04:53:02.403Z,18.70
2018-09-11T04:58:05.672Z,18.60
2018-09-11T05:03:08.670Z,18.40
2018-09-11T05:08:11.703Z,18.50
2018-09-11T05:13:14.813Z,18.60
2018-09-11T05:18:17.836Z,18.50
2018-09-11T05:23:20.845Z,18.50
2018-09-11T05:28:23.846Z,18.80
2018-09-11T05:33:26.856Z,18.90
2018-09-11T05:38:29.866Z,18.90
2018-09-11T05:43:32.889Z,18.60
2018-09-11T05:48:35.914Z,18.40
2018-09-11T05:53:38.938Z,18.30
2018-09-11T05:58:41.964Z,18.60
2018-09-11T06:03:44.971Z,18.90
2018-09-11T06:08:47.987Z,19.00
2018-09-11T06:13:51.026Z,19.20
2018-09-11T06:18:54.047Z,19.30
2018-09-11T06:23:57.078Z,19.40
2018-09-11T06:29:00.159Z,19.40
2018-09-11T06:34:03.320Z,19.60
2018-09-11T06:39:08.063Z,19.70
2018-09-11T06:44:11.083Z,19.80
2018-09-11T06:49:14.118Z,19.80
2018-09-11T06:54:17.127Z,19.90
2018-09-11T06:59:20.165Z,20.10
2018-09-11T07:04:23.195Z,20.10
2018-09-11T07:09:26.219Z,20.20
2018-09-11T07:14:29.220Z,20.20
2018-09-11T07:19:32.242Z,20.30
2018-09-11T07:24:35.259Z,20.30
2018-09-11T07:29:38.328Z,20.40
2018-09-11T07:34:41.364Z,20.40
2018-09-11T07:39:44.396Z,20.40
2018-09-11T07:44:47.450Z,20.50
2018-09-11T07:49:50.485Z,20.70
2018-09-11T07:54:53.515Z,20.90
2018-09-11T07:59:56.534Z,21.00
2018-09-11T08:04:59.569Z,21.10
2018-09-11T08:10:02.604Z,21.30
2018-09-11T08:15:06.379Z,21.50
2018-09-11T08:20:09.424Z,21.70
2018-09-11T08:25:12.539Z,22.00
2018-09-11T08:30:15.772Z,22.00
2018-09-11T08:35:18.843Z,22.10
2018-09-11T08:40:21.961Z,22.10
2018-09-11T08:45:25.044Z,22.20
2018-09-11T08:50:28.184Z,22.70
2018-09-11T08:55:31.267Z,23.10
2018-09-11T09:00:34.295Z,23.30
2018-09-11T09:05:37.343Z,22.90
2018-09-11T09:10:40.405Z,23.30
2018-09-11T09:15:43.704Z,23.30
2018-09-11T09:20:46.759Z,23.60
2018-09-11T09:25:49.751Z,23.60
2018-09-11T09:30:52.796Z,23.80
2018-09-11T09:35:55.889Z,23.70
2018-09-11T09:40:58.918Z,23.40
2018-09-11T09:46:02.019Z,23.40
2018-09-11T09:51:05.414Z,23.60
2018-09-11T09:56:08.541Z,23.40
2018-09-11T10:01:18.148Z,23.50
2018-09-11T10:06:21.299Z,23.60
2018-09-11T10:11:24.400Z,23.40
2018-09-11T10:16:27.499Z,23.50
2018-09-11T10:21:30.620Z,23.80
2018-09-11T10:26:33.647Z,24.10
2018-09-11T10:31:36.653Z,24.30
2018-09-11T10:36:39.831Z,24.60
2018-09-11T10:41:42.850Z,24.90
2018-09-11T10:46:45.872Z,25.00
2018-09-11T10:51:48.938Z,25.30
2018-09-11T10:56:51.939Z,26.10
2018-09-11T11:01:54.961Z,26.90
2018-09-11T11:06:57.956Z,27.10
2018-09-11T11:12:00.968Z,27.70
2018-09-11T11:17:04.088Z,27.10
2018-09-11T11:22:07.076Z,28.20
2018-09-11T11:27:10.231Z,27.40
2018-09-11T11:32:13.551Z,27.10
2018-09-11T11:37:16.719Z,26.70
2018-09-11T11:42:19.732Z,26.80
2018-09-11T11:47:22.700Z,26.90
2018-09-11T11:52:25.694Z,26.40
2018-09-11T11:57:28.683Z,26.20
2018-09-11T12:02:31.777Z,26.40
2018-09-11T12:07:34.836Z,26.30
2018-09-11T12:12:37.880Z,26.30
2018-09-11T12:17:40.950Z,26.50
2018-09-11T12:22:44.045Z,26.00
2018-09-11T12:27:47.056Z,26.20
2018-09-11T12:32:50.068Z,26.70
2018-09-11T12:37:53.201Z,27.20
2018-09-11T12:42:56.316Z,27.20
2018-09-11T12:47:59.700Z,27.40
2018-09-11T12:53:02.382Z,27.50
2018-09-11T12:58:05.415Z,27.20
2018-09-11T13:03:08.635Z,27.50
2018-09-11T13:08:11.647Z,27.50
2018-09-11T13:13:14.665Z,27.00
2018-09-11T13:18:17.674Z,26.80
2018-09-11T13:23:20.679Z,26.90
2018-09-11T13:28:23.791Z,26.80
2018-09-11T13:33:26.802Z,26.90
2018-09-11T13:38:29.902Z,26.90
2018-09-11T13:43:32.958Z,26.90
2018-09-11T13:48:35.963Z,27.30
2018-09-11T13:53:38.979Z,27.20
2018-09-11T13:58:41.998Z,27.20
2018-09-11T14:03:45.073Z,27.20
2018-09-11T14:08:48.092Z,27.10
2018-09-11T14:13:51.119Z,27.10
2018-09-11T14:18:54.133Z,27.50
2018-09-11T14:23:57.149Z,27.80
2018-09-11T14:29:00.234Z,28.00
2018-09-11T14:34:03.235Z,28.20
2018-09-11T14:39:07.433Z,28.20
2018-09-11T14:44:10.434Z,28.20
2018-09-11T14:49:13.456Z,28.10
2018-09-11T14:54:16.476Z,28.10
2018-09-11T14:59:19.483Z,28.20
2018-09-11T15:04:22.596Z,28.00
2018-09-11T15:09:25.620Z,28.20
2018-09-11T15:14:28.650Z,28.60
2018-09-11T15:19:31.671Z,28.30
2018-09-11T15:24:34.680Z,27.80
2018-09-11T15:29:37.701Z,27.40
2018-09-11T15:34:40.756Z,27.10
2018-09-11T15:39:43.780Z,27.50
2018-09-11T15:44:46.880Z,28.50
2018-09-11T15:49:49.889Z,28.80
2018-09-11T15:54:52.994Z,29.70
2018-09-11T15:59:56.012Z,29.80
2018-09-11T16:04:59.071Z,31.00
2018-09-11T16:10:02.083Z,32.40
2018-09-11T16:15:05.407Z,30.60
2018-09-11T16:20:08.408Z,30.50
2018-09-11T16:25:11.401Z,30.80
2018-09-11T16:30:14.513Z,31.40
2018-09-11T16:35:17.448Z,31.50
2018-09-11T16:40:20.524Z,32.90
2018-09-11T16:45:23.603Z,31.50
2018-09-11T16:50:26.720Z,29.40
2018-09-11T16:55:29.799Z,28.30
2018-09-11T17:00:32.840Z,27.60
2018-09-11T17:05:35.914Z,27.40
2018-09-11T17:10:39.669Z,27.10
2018-09-11T17:15:42.693Z,26.90
2018-09-11T17:20:45.808Z,26.70
2018-09-11T17:25:48.861Z,26.50
2018-09-11T17:30:51.923Z,26.30
2018-09-11T17:35:55.055Z,26.20
2018-09-11T17:40:58.077Z,26.00
2018-09-11T17:46:01.241Z,26.00
2018-09-11T17:51:04.289Z,25.90
2018-09-11T17:56:07.976Z,25.70
2018-09-11T18:01:11.099Z,25.60
2018-09-11T18:06:14.216Z,25.50
2018-09-11T18:11:17.319Z,25.40
2018-09-11T18:16:20.487Z,25.20
2018-09-11T18:21:23.541Z,24.90
2018-09-11T18:26:26.636Z,24.70
2018-09-11T18:31:29.646Z,24.60
2018-09-11T18:36:32.781Z,24.40
2018-09-11T18:41:35.809Z,24.40
2018-09-11T18:46:38.851Z,24.30
2018-09-11T18:51:41.918Z,24.20
2018-09-11T18:56:44.897Z,24.10
2018-09-11T19:01:47.945Z,24.00
2018-09-11T19:06:50.992Z,23.90
2018-09-11T19:11:53.984Z,23.90
2018-09-11T19:16:57.009Z,24.00
2018-09-11T19:22:00.120Z,24.10
2018-09-11T19:27:03.299Z,24.10
2018-09-11T19:32:06.248Z,24.10
2018-09-11T19:37:09.280Z,24.20
2018-09-11T19:42:12.541Z,24.10
2018-09-11T19:47:15.595Z,24.10
2018-09-11T19:52:18.698Z,24.10
2018-09-11T19:57:21.824Z,24.10
2018-09-11T20:02:24.933Z,24.10
2018-09-11T20:07:28.017Z,24.00
2018-09-11T20:12:31.133Z,24.00
2018-09-11T20:17:34.342Z,24.00
2018-09-11T20:22:38.094Z,23.90
2018-09-11T20:27:41.371Z,23.80
2018-09-11T20:32:44.768Z,23.70
2018-09-11T20:37:47.912Z,23.60
2018-09-11T20:42:50.891Z,23.60
2018-09-11T20:47:53.892Z,23.50
2018-09-11T20:52:56.997Z,23.50
2018-09-11T20:58:00.091Z,23.50
2018-09-11T21:03:03.090Z,23.50
2018-09-11T21:08:06.273Z,23.40
2018-09-11T21:13:09.308Z,23.30
2018-09-11T21:18:12.323Z,23.40
2018-09-11T21:23:15.516Z,23.40
2018-09-11T21:28:18.494Z,23.40
2018-09-11T21:33:21.742Z,23.30
2018-09-11T21:38:25.072Z,23.20
2018-09-11T21:43:28.114Z,23.10
2018-09-11T21:48:31.131Z,23.10
2018-09-11T21:53:34.116Z,23.00
2018-09-11T21:58:37.199Z,22.80
2018-09-11T22:03:40.244Z,22.70
2018-09-11T22:08:43.438Z,22.70
2018-09-11T22:13:46.859Z,22.60
2018-09-11T22:18:49.967Z,22.50
2018-09-11T22:23:53.245Z,22.40
2018-09-11T22:28:56.385Z,22.30
2018-09-11T22:33:59.494Z,22.30
2018-09-11T22:39:02.694Z,22.20
2018-09-11T22:44:05.881Z,22.10
2018-09-11T22:49:09.110Z,22.00
2018-09-11T22:54:12.213Z,21.90
2018-09-11T22:59:15.221Z,21.80
2018-09-11T23:04:18.315Z,21.70
2018-09-11T23:09:21.362Z,21.60
2018-09-11T23:14:24.523Z,21.50
2018-09-11T23:19:27.540Z,21.50
2018-09-11T23:24:30.633Z,21.40
2018-09-11T23:29:33.644Z,21.40
2018-09-11T23:34:36.748Z,21.30
2018-09-11T23:39:39.763Z,21.30
2018-09-11T23:44:42.787Z,21.20
2018-09-11T23:49:45.941Z,21.20
2018-09-11T23:54:49.060Z,21.10
2018-09-11T23:59:52.042Z,21.10
